sensor_id;sensor_type;location;lat;lon;timestamp;P1;durP1;ratioP1;P2;durP2;ratioP2
59659;SDS011;45534;52.690;6.268;2023-04-15T00:00:29;6.20;;;4.93;;
59659;SDS011;45534;52.690;6.268;2023-04-15T00:02:55;7.47;;;4.60;;
59659;SDS011;45534;52.690;6.268;2023-04-15T00:05:20;5.75;;;4.15;;
59659;SDS011;45534;52.690;6.268;2023-04-15T00:07:46;14.27;;;5.65;;
59659;SDS011;45534;52.690;6.268;2023-04-15T00:10:12;10.75;;;5.78;;
59659;SDS011;45534;52.690;6.268;2023-04-15T00:12:38;6.63;;;3.67;;
59659;SDS011;45534;52.690;6.268;2023-04-15T00:15:05;8.07;;;4.95;;
59659;SDS011;45534;52.690;6.268;2023-04-15T00:17:33;6.88;;;4.90;;
59659;SDS011;45534;52.690;6.268;2023-04-15T00:20:00;10.27;;;3.83;;
59659;SDS011;45534;52.690;6.268;2023-04-15T00:22:26;4.88;;;3.75;;
59659;SDS011;45534;52.690;6.268;2023-04-15T00:24:52;4.40;;;3.55;;
59659;SDS011;45534;52.690;6.268;2023-04-15T00:27:18;7.55;;;3.75;;
59659;SDS011;45534;52.690;6.268;2023-04-15T00:29:44;3.35;;;2.70;;
59659;SDS011;45534;52.690;6.268;2023-04-15T00:32:10;5.47;;;4.80;;
59659;SDS011;45534;52.690;6.268;2023-04-15T00:34:35;6.25;;;3.95;;
59659;SDS011;45534;52.690;6.268;2023-04-15T00:37:01;9.18;;;3.53;;
59659;SDS011;45534;52.690;6.268;2023-04-15T00:39:27;7.45;;;3.83;;
59659;SDS011;45534;52.690;6.268;2023-04-15T00:41:53;5.93;;;3.35;;
59659;SDS011;45534;52.690;6.268;2023-04-15T00:44:20;12.32;;;5.93;;
59659;SDS011;45534;52.690;6.268;2023-04-15T00:46:46;5.38;;;4.20;;
59659;SDS011;45534;52.690;6.268;2023-04-15T00:49:14;5.35;;;4.13;;
59659;SDS011;45534;52.690;6.268;2023-04-15T00:51:41;8.75;;;4.18;;
59659;SDS011;45534;52.690;6.268;2023-04-15T00:54:07;8.68;;;5.50;;
59659;SDS011;45534;52.690;6.268;2023-04-15T00:56:36;6.72;;;5.07;;
59659;SDS011;45534;52.690;6.268;2023-04-15T00:59:03;29.75;;;6.35;;
59659;SDS011;45534;52.690;6.268;2023-04-15T01:01:30;5.85;;;3.92;;
59659;SDS011;45534;52.690;6.268;2023-04-15T01:03:58;19.80;;;5.82;;
59659;SDS011;45534;52.690;6.268;2023-04-15T01:06:23;5.25;;;4.13;;
59659;SDS011;45534;52.690;6.268;2023-04-15T01:08:51;5.35;;;4.18;;
59659;SDS011;45534;52.690;6.268;2023-04-15T01:11:17;7.22;;;3.75;;
59659;SDS011;45534;52.690;6.268;2023-04-15T01:13:43;5.20;;;3.80;;
59659;SDS011;45534;52.690;6.268;2023-04-15T01:16:09;6.93;;;3.85;;
59659;SDS011;45534;52.690;6.268;2023-04-15T01:18:36;11.73;;;5.25;;
59659;SDS011;45534;52.690;6.268;2023-04-15T01:21:03;8.70;;;5.78;;
59659;SDS011;45534;52.690;6.268;2023-04-15T01:23:30;11.43;;;4.55;;
59659;SDS011;45534;52.690;6.268;2023-04-15T01:25:56;10.35;;;4.28;;
59659;SDS011;45534;52.690;6.268;2023-04-15T01:28:23;12.38;;;4.90;;
59659;SDS011;45534;52.690;6.268;2023-04-15T01:30:50;9.82;;;4.07;;
59659;SDS011;45534;52.690;6.268;2023-04-15T01:33:29;6.65;;;6.00;;
59659;SDS011;45534;52.690;6.268;2023-04-15T01:35:55;9.65;;;3.80;;
59659;SDS011;45534;52.690;6.268;2023-04-15T01:38:21;8.02;;;3.75;;
59659;SDS011;45534;52.690;6.268;2023-04-15T01:40:48;8.30;;;5.22;;
59659;SDS011;45534;52.690;6.268;2023-04-15T01:43:14;16.33;;;5.15;;
59659;SDS011;45534;52.690;6.268;2023-04-15T01:45:39;6.75;;;5.93;;
59659;SDS011;45534;52.690;6.268;2023-04-15T01:48:05;8.95;;;4.50;;
59659;SDS011;45534;52.690;6.268;2023-04-15T01:50:32;12.98;;;6.38;;
59659;SDS011;45534;52.690;6.268;2023-04-15T01:52:58;5.78;;;5.15;;
59659;SDS011;45534;52.690;6.268;2023-04-15T01:55:23;7.13;;;4.72;;
59659;SDS011;45534;52.690;6.268;2023-04-15T01:57:49;6.40;;;3.95;;
59659;SDS011;45534;52.690;6.268;2023-04-15T02:00:15;9.52;;;3.50;;
59659;SDS011;45534;52.690;6.268;2023-04-15T02:02:41;4.72;;;3.50;;
59659;SDS011;45534;52.690;6.268;2023-04-15T02:05:07;9.13;;;3.53;;
59659;SDS011;45534;52.690;6.268;2023-04-15T02:07:33;8.38;;;4.22;;
59659;SDS011;45534;52.690;6.268;2023-04-15T02:09:59;6.72;;;3.95;;
59659;SDS011;45534;52.690;6.268;2023-04-15T02:12:25;4.50;;;3.45;;
59659;SDS011;45534;52.690;6.268;2023-04-15T02:14:51;12.52;;;4.22;;
59659;SDS011;45534;52.690;6.268;2023-04-15T02:17:17;9.48;;;5.93;;
59659;SDS011;45534;52.690;6.268;2023-04-15T02:19:43;8.70;;;4.50;;
59659;SDS011;45534;52.690;6.268;2023-04-15T02:22:08;6.60;;;4.22;;
59659;SDS011;45534;52.690;6.268;2023-04-15T02:24:37;7.22;;;5.10;;
59659;SDS011;45534;52.690;6.268;2023-04-15T02:27:03;7.68;;;3.65;;
59659;SDS011;45534;52.690;6.268;2023-04-15T02:29:30;5.50;;;4.35;;
59659;SDS011;45534;52.690;6.268;2023-04-15T02:31:56;1.65;;;1.55;;
59659;SDS011;45534;52.690;6.268;2023-04-15T02:34:22;4.25;;;2.72;;
59659;SDS011;45534;52.690;6.268;2023-04-15T02:36:47;4.20;;;3.55;;
59659;SDS011;45534;52.690;6.268;2023-04-15T02:39:13;2.78;;;2.58;;
59659;SDS011;45534;52.690;6.268;2023-04-15T02:41:41;6.43;;;3.85;;
59659;SDS011;45534;52.690;6.268;2023-04-15T02:44:08;6.97;;;4.18;;
59659;SDS011;45534;52.690;6.268;2023-04-15T02:46:33;7.90;;;4.10;;
59659;SDS011;45534;52.690;6.268;2023-04-15T02:48:59;4.32;;;3.28;;
59659;SDS011;45534;52.690;6.268;2023-04-15T02:51:29;8.52;;;4.45;;
59659;SDS011;45534;52.690;6.268;2023-04-15T02:53:56;6.28;;;3.88;;
59659;SDS011;45534;52.690;6.268;2023-04-15T02:56:22;4.60;;;3.25;;
59659;SDS011;45534;52.690;6.268;2023-04-15T02:58:48;7.47;;;4.78;;
59659;SDS011;45534;52.690;6.268;2023-04-15T03:01:14;14.82;;;5.53;;
59659;SDS011;45534;52.690;6.268;2023-04-15T03:03:40;5.47;;;4.53;;
59659;SDS011;45534;52.690;6.268;2023-04-15T03:06:06;8.75;;;6.28;;
59659;SDS011;45534;52.690;6.268;2023-04-15T03:08:33;11.75;;;4.38;;
59659;SDS011;45534;52.690;6.268;2023-04-15T03:10:58;9.23;;;3.45;;
59659;SDS011;45534;52.690;6.268;2023-04-15T03:13:26;3.50;;;2.65;;
59659;SDS011;45534;52.690;6.268;2023-04-15T03:15:52;6.90;;;4.50;;
59659;SDS011;45534;52.690;6.268;2023-04-15T03:18:17;6.75;;;4.82;;
59659;SDS011;45534;52.690;6.268;2023-04-15T03:20:43;9.35;;;5.03;;
59659;SDS011;45534;52.690;6.268;2023-04-15T03:23:09;8.20;;;3.53;;
59659;SDS011;45534;52.690;6.268;2023-04-15T03:25:35;4.72;;;4.07;;
59659;SDS011;45534;52.690;6.268;2023-04-15T03:28:01;7.55;;;4.05;;
59659;SDS011;45534;52.690;6.268;2023-04-15T03:30:27;6.22;;;4.35;;
59659;SDS011;45534;52.690;6.268;2023-04-15T03:32:53;4.15;;;2.35;;
59659;SDS011;45534;52.690;6.268;2023-04-15T03:35:19;5.30;;;3.92;;
59659;SDS011;45534;52.690;6.268;2023-04-15T03:37:45;8.05;;;3.70;;
59659;SDS011;45534;52.690;6.268;2023-04-15T03:40:11;11.95;;;6.03;;
59659;SDS011;45534;52.690;6.268;2023-04-15T03:42:37;4.35;;;2.97;;
59659;SDS011;45534;52.690;6.268;2023-04-15T03:45:02;2.78;;;2.33;;
59659;SDS011;45534;52.690;6.268;2023-04-15T03:47:28;5.57;;;3.75;;
59659;SDS011;45534;52.690;6.268;2023-04-15T03:49:54;5.20;;;3.08;;
59659;SDS011;45534;52.690;6.268;2023-04-15T03:52:20;2.90;;;2.67;;
59659;SDS011;45534;52.690;6.268;2023-04-15T03:54:45;4.82;;;2.45;;
59659;SDS011;45534;52.690;6.268;2023-04-15T03:57:11;4.65;;;2.97;;
59659;SDS011;45534;52.690;6.268;2023-04-15T03:59:37;8.18;;;4.95;;
59659;SDS011;45534;52.690;6.268;2023-04-15T04:02:03;4.13;;;3.35;;
59659;SDS011;45534;52.690;6.268;2023-04-15T04:04:28;5.85;;;4.70;;
59659;SDS011;45534;52.690;6.268;2023-04-15T04:06:54;3.03;;;2.75;;
59659;SDS011;45534;52.690;6.268;2023-04-15T04:09:20;12.07;;;5.43;;
59659;SDS011;45534;52.690;6.268;2023-04-15T04:11:45;12.10;;;4.10;;
59659;SDS011;45534;52.690;6.268;2023-04-15T04:14:11;10.95;;;3.97;;
59659;SDS011;45534;52.690;6.268;2023-04-15T04:16:37;4.35;;;3.58;;
59659;SDS011;45534;52.690;6.268;2023-04-15T04:19:02;3.88;;;3.53;;
59659;SDS011;45534;52.690;6.268;2023-04-15T04:21:28;2.78;;;2.45;;
59659;SDS011;45534;52.690;6.268;2023-04-15T04:23:54;6.53;;;4.28;;
59659;SDS011;45534;52.690;6.268;2023-04-15T04:26:20;4.72;;;4.25;;
59659;SDS011;45534;52.690;6.268;2023-04-15T04:28:46;3.67;;;3.10;;
59659;SDS011;45534;52.690;6.268;2023-04-15T04:31:12;8.65;;;3.97;;
59659;SDS011;45534;52.690;6.268;2023-04-15T04:33:38;8.77;;;4.57;;
59659;SDS011;45534;52.690;6.268;2023-04-15T04:36:04;7.10;;;5.25;;
59659;SDS011;45534;52.690;6.268;2023-04-15T04:38:30;6.72;;;4.68;;
59659;SDS011;45534;52.690;6.268;2023-04-15T04:40:56;6.75;;;5.95;;
59659;SDS011;45534;52.690;6.268;2023-04-15T04:43:21;4.30;;;3.88;;
59659;SDS011;45534;52.690;6.268;2023-04-15T04:45:47;2.90;;;2.70;;
59659;SDS011;45534;52.690;6.268;2023-04-15T04:48:13;2.75;;;2.55;;
59659;SDS011;45534;52.690;6.268;2023-04-15T04:50:38;8.27;;;3.45;;
59659;SDS011;45534;52.690;6.268;2023-04-15T04:53:04;3.28;;;3.08;;
59659;SDS011;45534;52.690;6.268;2023-04-15T04:55:30;4.07;;;2.58;;
59659;SDS011;45534;52.690;6.268;2023-04-15T04:57:56;4.70;;;4.07;;
59659;SDS011;45534;52.690;6.268;2023-04-15T05:00:22;6.47;;;4.28;;
59659;SDS011;45534;52.690;6.268;2023-04-15T05:02:47;17.65;;;4.60;;
59659;SDS011;45534;52.690;6.268;2023-04-15T05:05:13;6.85;;;2.78;;
59659;SDS011;45534;52.690;6.268;2023-04-15T05:07:39;7.35;;;4.78;;
59659;SDS011;45534;52.690;6.268;2023-04-15T05:10:04;7.30;;;4.50;;
59659;SDS011;45534;52.690;6.268;2023-04-15T05:12:31;3.15;;;2.38;;
59659;SDS011;45534;52.690;6.268;2023-04-15T05:14:57;4.95;;;3.60;;
59659;SDS011;45534;52.690;6.268;2023-04-15T05:17:22;7.50;;;6.80;;
59659;SDS011;45534;52.690;6.268;2023-04-15T05:19:48;7.90;;;5.15;;
59659;SDS011;45534;52.690;6.268;2023-04-15T05:22:14;3.95;;;2.80;;
59659;SDS011;45534;52.690;6.268;2023-04-15T05:24:40;9.45;;;5.32;;
59659;SDS011;45534;52.690;6.268;2023-04-15T05:27:05;4.53;;;4.07;;
59659;SDS011;45534;52.690;6.268;2023-04-15T05:29:32;6.72;;;4.80;;
59659;SDS011;45534;52.690;6.268;2023-04-15T05:31:58;8.23;;;5.20;;
59659;SDS011;45534;52.690;6.268;2023-04-15T05:34:24;5.45;;;3.80;;
59659;SDS011;45534;52.690;6.268;2023-04-15T05:36:50;7.10;;;5.57;;
59659;SDS011;45534;52.690;6.268;2023-04-15T05:39:16;7.95;;;5.85;;
59659;SDS011;45534;52.690;6.268;2023-04-15T05:41:42;5.47;;;3.85;;
59659;SDS011;45534;52.690;6.268;2023-04-15T05:44:08;10.80;;;5.05;;
59659;SDS011;45534;52.690;6.268;2023-04-15T05:46:34;8.15;;;6.30;;
59659;SDS011;45534;52.690;6.268;2023-04-15T05:49:00;5.85;;;4.93;;
59659;SDS011;45534;52.690;6.268;2023-04-15T05:51:26;5.38;;;4.35;;
59659;SDS011;45534;52.690;6.268;2023-04-15T05:53:52;5.47;;;4.78;;
59659;SDS011;45534;52.690;6.268;2023-04-15T05:56:17;6.30;;;5.07;;
59659;SDS011;45534;52.690;6.268;2023-04-15T05:58:44;10.60;;;4.15;;
59659;SDS011;45534;52.690;6.268;2023-04-15T06:01:10;4.22;;;3.30;;
59659;SDS011;45534;52.690;6.268;2023-04-15T06:03:36;4.60;;;4.18;;
59659;SDS011;45534;52.690;6.268;2023-04-15T06:06:03;10.00;;;6.47;;
59659;SDS011;45534;52.690;6.268;2023-04-15T06:08:28;9.82;;;6.38;;
59659;SDS011;45534;52.690;6.268;2023-04-15T06:10:54;5.25;;;4.43;;
59659;SDS011;45534;52.690;6.268;2023-04-15T06:13:20;6.70;;;5.82;;
59659;SDS011;45534;52.690;6.268;2023-04-15T06:15:46;12.48;;;6.35;;
59659;SDS011;45534;52.690;6.268;2023-04-15T06:18:11;4.35;;;3.97;;
59659;SDS011;45534;52.690;6.268;2023-04-15T06:20:37;6.53;;;5.72;;
59659;SDS011;45534;52.690;6.268;2023-04-15T06:23:03;7.63;;;3.90;;
59659;SDS011;45534;52.690;6.268;2023-04-15T06:25:29;10.05;;;6.78;;
59659;SDS011;45534;52.690;6.268;2023-04-15T06:27:55;6.10;;;5.50;;
59659;SDS011;45534;52.690;6.268;2023-04-15T06:30:20;4.97;;;4.47;;
59659;SDS011;45534;52.690;6.268;2023-04-15T06:32:46;4.80;;;3.97;;
59659;SDS011;45534;52.690;6.268;2023-04-15T06:35:12;7.00;;;5.10;;
59659;SDS011;45534;52.690;6.268;2023-04-15T06:37:38;6.63;;;5.05;;
59659;SDS011;45534;52.690;6.268;2023-04-15T06:40:04;5.47;;;4.95;;
59659;SDS011;45534;52.690;6.268;2023-04-15T06:42:30;6.75;;;5.75;;
59659;SDS011;45534;52.690;6.268;2023-04-15T06:44:56;14.60;;;8.15;;
59659;SDS011;45534;52.690;6.268;2023-04-15T06:47:22;10.50;;;7.72;;
59659;SDS011;45534;52.690;6.268;2023-04-15T06:49:48;8.23;;;6.75;;
59659;SDS011;45534;52.690;6.268;2023-04-15T06:52:13;14.25;;;9.85;;
59659;SDS011;45534;52.690;6.268;2023-04-15T06:54:41;7.78;;;6.13;;
59659;SDS011;45534;52.690;6.268;2023-04-15T06:57:06;11.90;;;9.70;;
59659;SDS011;45534;52.690;6.268;2023-04-15T06:59:33;14.43;;;10.75;;
59659;SDS011;45534;52.690;6.268;2023-04-15T07:01:59;8.65;;;7.22;;
59659;SDS011;45534;52.690;6.268;2023-04-15T07:04:25;18.23;;;12.95;;
59659;SDS011;45534;52.690;6.268;2023-04-15T07:06:52;17.17;;;13.45;;
59659;SDS011;45534;52.690;6.268;2023-04-15T07:09:20;10.27;;;7.40;;
59659;SDS011;45534;52.690;6.268;2023-04-15T07:11:46;12.02;;;9.40;;
59659;SDS011;45534;52.690;6.268;2023-04-15T07:14:13;12.90;;;9.38;;
59659;SDS011;45534;52.690;6.268;2023-04-15T07:16:39;7.45;;;6.15;;
59659;SDS011;45534;52.690;6.268;2023-04-15T07:19:05;13.48;;;7.05;;
59659;SDS011;45534;52.690;6.268;2023-04-15T07:21:30;16.98;;;11.82;;
59659;SDS011;45534;52.690;6.268;2023-04-15T07:23:56;9.70;;;6.70;;
59659;SDS011;45534;52.690;6.268;2023-04-15T07:26:22;11.48;;;7.97;;
59659;SDS011;45534;52.690;6.268;2023-04-15T07:28:48;15.82;;;11.52;;
59659;SDS011;45534;52.690;6.268;2023-04-15T07:31:14;15.20;;;10.95;;
59659;SDS011;45534;52.690;6.268;2023-04-15T07:33:41;19.80;;;14.95;;
59659;SDS011;45534;52.690;6.268;2023-04-15T07:36:07;12.82;;;9.52;;
59659;SDS011;45534;52.690;6.268;2023-04-15T07:38:33;19.63;;;14.18;;
59659;SDS011;45534;52.690;6.268;2023-04-15T07:40:59;18.65;;;11.93;;
59659;SDS011;45534;52.690;6.268;2023-04-15T07:43:24;7.93;;;6.20;;
59659;SDS011;45534;52.690;6.268;2023-04-15T07:45:50;18.52;;;14.38;;
59659;SDS011;45534;52.690;6.268;2023-04-15T07:48:16;14.88;;;11.80;;
59659;SDS011;45534;52.690;6.268;2023-04-15T07:50:41;9.18;;;7.53;;
59659;SDS011;45534;52.690;6.268;2023-04-15T07:53:07;11.90;;;9.43;;
59659;SDS011;45534;52.690;6.268;2023-04-15T07:55:33;11.77;;;8.32;;
59659;SDS011;45534;52.690;6.268;2023-04-15T07:57:59;16.95;;;11.25;;
59659;SDS011;45534;52.690;6.268;2023-04-15T08:00:24;17.70;;;13.35;;
59659;SDS011;45534;52.690;6.268;2023-04-15T08:02:51;17.00;;;11.48;;
59659;SDS011;45534;52.690;6.268;2023-04-15T08:05:17;17.50;;;11.73;;
59659;SDS011;45534;52.690;6.268;2023-04-15T08:07:43;19.73;;;17.10;;
59659;SDS011;45534;52.690;6.268;2023-04-15T08:10:09;15.40;;;9.88;;
59659;SDS011;45534;52.690;6.268;2023-04-15T08:12:36;10.85;;;9.23;;
59659;SDS011;45534;52.690;6.268;2023-04-15T08:15:02;11.55;;;9.25;;
59659;SDS011;45534;52.690;6.268;2023-04-15T08:17:28;17.00;;;11.45;;
59659;SDS011;45534;52.690;6.268;2023-04-15T08:19:54;17.27;;;11.13;;
59659;SDS011;45534;52.690;6.268;2023-04-15T08:22:20;13.75;;;9.27;;
59659;SDS011;45534;52.690;6.268;2023-04-15T08:24:45;12.25;;;6.80;;
59659;SDS011;45534;52.690;6.268;2023-04-15T08:27:11;15.93;;;10.52;;
59659;SDS011;45534;52.690;6.268;2023-04-15T08:29:37;10.95;;;8.93;;
59659;SDS011;45534;52.690;6.268;2023-04-15T08:32:03;14.10;;;9.75;;
59659;SDS011;45534;52.690;6.268;2023-04-15T08:34:30;12.85;;;7.10;;
59659;SDS011;45534;52.690;6.268;2023-04-15T08:36:56;13.40;;;9.80;;
59659;SDS011;45534;52.690;6.268;2023-04-15T08:39:21;12.20;;;9.43;;
59659;SDS011;45534;52.690;6.268;2023-04-15T08:42:07;9.68;;;6.43;;
59659;SDS011;45534;52.690;6.268;2023-04-15T08:44:42;14.05;;;9.13;;
59659;SDS011;45534;52.690;6.268;2023-04-15T08:47:08;10.52;;;7.32;;
59659;SDS011;45534;52.690;6.268;2023-04-15T08:49:38;12.15;;;7.80;;
59659;SDS011;45534;52.690;6.268;2023-04-15T08:52:05;11.45;;;8.75;;
59659;SDS011;45534;52.690;6.268;2023-04-15T08:54:32;16.20;;;9.88;;
59659;SDS011;45534;52.690;6.268;2023-04-15T08:56:59;12.23;;;10.23;;
59659;SDS011;45534;52.690;6.268;2023-04-15T08:59:26;14.20;;;11.30;;
59659;SDS011;45534;52.690;6.268;2023-04-15T09:01:54;9.18;;;7.32;;
59659;SDS011;45534;52.690;6.268;2023-04-15T09:04:22;11.02;;;7.90;;
59659;SDS011;45534;52.690;6.268;2023-04-15T09:06:47;16.02;;;10.65;;
59659;SDS011;45534;52.690;6.268;2023-04-15T09:09:13;9.38;;;6.47;;
59659;SDS011;45534;52.690;6.268;2023-04-15T09:11:39;9.38;;;6.97;;
59659;SDS011;45534;52.690;6.268;2023-04-15T09:14:05;10.43;;;6.82;;
59659;SDS011;45534;52.690;6.268;2023-04-15T09:16:31;20.98;;;6.13;;
59659;SDS011;45534;52.690;6.268;2023-04-15T09:19:21;9.73;;;6.68;;
59659;SDS011;45534;52.690;6.268;2023-04-15T09:21:49;7.15;;;4.95;;
59659;SDS011;45534;52.690;6.268;2023-04-15T09:24:17;10.88;;;7.15;;
59659;SDS011;45534;52.690;6.268;2023-04-15T09:26:43;10.40;;;7.45;;
59659;SDS011;45534;52.690;6.268;2023-04-15T09:29:10;8.38;;;6.80;;
59659;SDS011;45534;52.690;6.268;2023-04-15T09:31:39;11.23;;;6.38;;
59659;SDS011;45534;52.690;6.268;2023-04-15T09:34:06;5.63;;;4.05;;
59659;SDS011;45534;52.690;6.268;2023-04-15T09:39:14;8.52;;;5.72;;
59659;SDS011;45534;52.690;6.268;2023-04-15T09:41:40;6.30;;;4.97;;
59659;SDS011;45534;52.690;6.268;2023-04-15T09:44:05;8.85;;;7.32;;
59659;SDS011;45534;52.690;6.268;2023-04-15T09:46:41;7.70;;;6.38;;
59659;SDS011;45534;52.690;6.268;2023-04-15T09:49:10;7.55;;;4.95;;
59659;SDS011;45534;52.690;6.268;2023-04-15T09:51:37;7.50;;;4.68;;
59659;SDS011;45534;52.690;6.268;2023-04-15T09:54:03;9.63;;;4.25;;
59659;SDS011;45534;52.690;6.268;2023-04-15T09:56:35;50.33;;;15.00;;
59659;SDS011;45534;52.690;6.268;2023-04-15T09:59:03;6.00;;;4.03;;
59659;SDS011;45534;52.690;6.268;2023-04-15T10:01:30;5.65;;;4.35;;
59659;SDS011;45534;52.690;6.268;2023-04-15T10:03:56;12.70;;;5.95;;
59659;SDS011;45534;52.690;6.268;2023-04-15T10:06:25;7.07;;;4.93;;
59659;SDS011;45534;52.690;6.268;2023-04-15T10:08:51;9.35;;;5.95;;
59659;SDS011;45534;52.690;6.268;2023-04-15T10:11:19;8.45;;;5.05;;
59659;SDS011;45534;52.690;6.268;2023-04-15T10:13:48;8.80;;;4.43;;
59659;SDS011;45534;52.690;6.268;2023-04-15T10:16:15;8.15;;;5.05;;
59659;SDS011;45534;52.690;6.268;2023-04-15T10:18:44;6.57;;;4.43;;
59659;SDS011;45534;52.690;6.268;2023-04-15T10:21:12;9.25;;;3.88;;
59659;SDS011;45534;52.690;6.268;2023-04-15T10:23:42;8.63;;;6.25;;
59659;SDS011;45534;52.690;6.268;2023-04-15T10:26:09;4.25;;;3.58;;
59659;SDS011;45534;52.690;6.268;2023-04-15T10:28:37;4.65;;;3.35;;
59659;SDS011;45534;52.690;6.268;2023-04-15T10:31:03;6.85;;;4.45;;
59659;SDS011;45534;52.690;6.268;2023-04-15T10:33:29;12.05;;;6.72;;
59659;SDS011;45534;52.690;6.268;2023-04-15T10:35:56;13.55;;;7.18;;
59659;SDS011;45534;52.690;6.268;2023-04-15T10:38:38;7.45;;;5.22;;
59659;SDS011;45534;52.690;6.268;2023-04-15T10:43:55;3.65;;;3.00;;
59659;SDS011;45534;52.690;6.268;2023-04-15T10:46:41;7.20;;;3.85;;
59659;SDS011;45534;52.690;6.268;2023-04-15T10:49:10;7.05;;;3.60;;
59659;SDS011;45534;52.690;6.268;2023-04-15T10:51:46;10.10;;;4.88;;
59659;SDS011;45534;52.690;6.268;2023-04-15T10:54:16;8.85;;;4.07;;
59659;SDS011;45534;52.690;6.268;2023-04-15T10:59:28;3.75;;;3.00;;
59659;SDS011;45534;52.690;6.268;2023-04-15T11:13:02;6.43;;;3.05;;
59659;SDS011;45534;52.690;6.268;2023-04-15T11:18:07;3.05;;;2.50;;
59659;SDS011;45534;52.690;6.268;2023-04-15T11:20:38;4.53;;;3.72;;
59659;SDS011;45534;52.690;6.268;2023-04-15T11:23:04;2.63;;;2.25;;
59659;SDS011;45534;52.690;6.268;2023-04-15T11:25:32;3.50;;;2.80;;
59659;SDS011;45534;52.690;6.268;2023-04-15T11:27:59;3.83;;;2.40;;
59659;SDS011;45534;52.690;6.268;2023-04-15T11:30:27;3.42;;;2.55;;
59659;SDS011;45534;52.690;6.268;2023-04-15T11:32:56;3.53;;;2.47;;
59659;SDS011;45534;52.690;6.268;2023-04-15T11:35:23;1.90;;;1.80;;
59659;SDS011;45534;52.690;6.268;2023-04-15T11:37:48;2.58;;;1.83;;
59659;SDS011;45534;52.690;6.268;2023-04-15T11:40:15;3.22;;;2.30;;
59659;SDS011;45534;52.690;6.268;2023-04-15T11:42:43;1.75;;;1.65;;
59659;SDS011;45534;52.690;6.268;2023-04-15T11:45:12;2.95;;;2.38;;
59659;SDS011;45534;52.690;6.268;2023-04-15T11:47:40;2.70;;;2.50;;
59659;SDS011;45534;52.690;6.268;2023-04-15T11:50:22;3.22;;;2.45;;
59659;SDS011;45534;52.690;6.268;2023-04-15T11:52:51;3.47;;;2.58;;
59659;SDS011;45534;52.690;6.268;2023-04-15T11:55:17;2.40;;;2.28;;
59659;SDS011;45534;52.690;6.268;2023-04-15T11:57:42;2.08;;;1.95;;
59659;SDS011;45534;52.690;6.268;2023-04-15T12:00:09;3.10;;;2.78;;
59659;SDS011;45534;52.690;6.268;2023-04-15T12:02:38;3.42;;;2.72;;
59659;SDS011;45534;52.690;6.268;2023-04-15T12:05:04;5.25;;;3.72;;
59659;SDS011;45534;52.690;6.268;2023-04-15T12:07:30;2.63;;;2.38;;
59659;SDS011;45534;52.690;6.268;2023-04-15T12:09:57;4.35;;;2.38;;
59659;SDS011;45534;52.690;6.268;2023-04-15T12:12:29;2.15;;;1.95;;
59659;SDS011;45534;52.690;6.268;2023-04-15T12:14:58;5.65;;;2.75;;
59659;SDS011;45534;52.690;6.268;2023-04-15T12:17:24;6.93;;;4.18;;
59659;SDS011;45534;52.690;6.268;2023-04-15T12:19:55;6.60;;;3.88;;
59659;SDS011;45534;52.690;6.268;2023-04-15T12:22:20;6.20;;;4.30;;
59659;SDS011;45534;52.690;6.268;2023-04-15T12:24:47;6.93;;;3.75;;
59659;SDS011;45534;52.690;6.268;2023-04-15T12:27:24;6.63;;;3.53;;
59659;SDS011;45534;52.690;6.268;2023-04-15T12:29:58;5.18;;;3.55;;
59659;SDS011;45534;52.690;6.268;2023-04-15T12:32:33;10.02;;;3.80;;
59659;SDS011;45534;52.690;6.268;2023-04-15T12:34:59;5.20;;;3.88;;
59659;SDS011;45534;52.690;6.268;2023-04-15T12:37:25;7.20;;;3.78;;
59659;SDS011;45534;52.690;6.268;2023-04-15T12:39:51;7.32;;;4.22;;
59659;SDS011;45534;52.690;6.268;2023-04-15T12:42:18;7.90;;;3.28;;
59659;SDS011;45534;52.690;6.268;2023-04-15T12:44:44;8.15;;;3.40;;
59659;SDS011;45534;52.690;6.268;2023-04-15T12:47:10;10.57;;;4.70;;
59659;SDS011;45534;52.690;6.268;2023-04-15T12:49:37;3.60;;;3.30;;
59659;SDS011;45534;52.690;6.268;2023-04-15T12:52:03;4.78;;;3.30;;
59659;SDS011;45534;52.690;6.268;2023-04-15T12:54:30;10.02;;;5.38;;
59659;SDS011;45534;52.690;6.268;2023-04-15T12:56:56;8.07;;;4.88;;
59659;SDS011;45534;52.690;6.268;2023-04-15T12:59:22;14.10;;;4.10;;
59659;SDS011;45534;52.690;6.268;2023-04-15T13:01:48;11.55;;;3.95;;
59659;SDS011;45534;52.690;6.268;2023-04-15T13:04:15;6.10;;;3.13;;
59659;SDS011;45534;52.690;6.268;2023-04-15T13:06:41;12.13;;;5.15;;
59659;SDS011;45534;52.690;6.268;2023-04-15T13:09:07;11.45;;;5.10;;
59659;SDS011;45534;52.690;6.268;2023-04-15T13:11:33;15.15;;;5.53;;
59659;SDS011;45534;52.690;6.268;2023-04-15T13:14:00;11.20;;;4.57;;
59659;SDS011;45534;52.690;6.268;2023-04-15T13:16:29;9.02;;;4.35;;
59659;SDS011;45534;52.690;6.268;2023-04-15T13:18:56;10.70;;;4.38;;
59659;SDS011;45534;52.690;6.268;2023-04-15T13:21:23;6.10;;;2.55;;
59659;SDS011;45534;52.690;6.268;2023-04-15T13:23:48;5.88;;;3.90;;
59659;SDS011;45534;52.690;6.268;2023-04-15T13:26:17;14.48;;;4.93;;
59659;SDS011;45534;52.690;6.268;2023-04-15T13:28:43;11.38;;;4.85;;
59659;SDS011;45534;52.690;6.268;2023-04-15T13:31:09;10.05;;;4.80;;
59659;SDS011;45534;52.690;6.268;2023-04-15T13:33:35;13.65;;;4.15;;
59659;SDS011;45534;52.690;6.268;2023-04-15T13:36:01;9.05;;;3.85;;
59659;SDS011;45534;52.690;6.268;2023-04-15T13:38:27;10.70;;;3.83;;
59659;SDS011;45534;52.690;6.268;2023-04-15T13:40:52;7.88;;;3.92;;
59659;SDS011;45534;52.690;6.268;2023-04-15T13:43:18;14.63;;;3.28;;
59659;SDS011;45534;52.690;6.268;2023-04-15T13:45:45;5.57;;;3.13;;
59659;SDS011;45534;52.690;6.268;2023-04-15T13:48:11;10.48;;;3.22;;
59659;SDS011;45534;52.690;6.268;2023-04-15T13:50:36;10.05;;;3.13;;
59659;SDS011;45534;52.690;6.268;2023-04-15T13:53:02;5.45;;;2.90;;
59659;SDS011;45534;52.690;6.268;2023-04-15T13:55:28;6.53;;;2.50;;
59659;SDS011;45534;52.690;6.268;2023-04-15T13:57:53;9.15;;;3.33;;
59659;SDS011;45534;52.690;6.268;2023-04-15T14:00:20;5.25;;;2.97;;
59659;SDS011;45534;52.690;6.268;2023-04-15T14:02:46;10.20;;;2.45;;
59659;SDS011;45534;52.690;6.268;2023-04-15T14:05:12;10.77;;;4.03;;
59659;SDS011;45534;52.690;6.268;2023-04-15T14:07:38;9.57;;;3.90;;
59659;SDS011;45534;52.690;6.268;2023-04-15T14:10:04;3.80;;;2.30;;
59659;SDS011;45534;52.690;6.268;2023-04-15T14:12:30;6.35;;;3.03;;
59659;SDS011;45534;52.690;6.268;2023-04-15T14:14:55;16.20;;;4.35;;
59659;SDS011;45534;52.690;6.268;2023-04-15T14:17:21;4.10;;;2.72;;
59659;SDS011;45534;52.690;6.268;2023-04-15T14:19:47;11.43;;;4.07;;
59659;SDS011;45534;52.690;6.268;2023-04-15T14:22:12;7.40;;;3.15;;
59659;SDS011;45534;52.690;6.268;2023-04-15T14:24:38;13.75;;;4.00;;
59659;SDS011;45534;52.690;6.268;2023-04-15T14:27:04;8.73;;;2.85;;
59659;SDS011;45534;52.690;6.268;2023-04-15T14:29:30;9.02;;;3.42;;
59659;SDS011;45534;52.690;6.268;2023-04-15T14:31:56;16.48;;;3.50;;
59659;SDS011;45534;52.690;6.268;2023-04-15T14:34:23;6.70;;;3.30;;
59659;SDS011;45534;52.690;6.268;2023-04-15T14:36:50;19.75;;;4.70;;
59659;SDS011;45534;52.690;6.268;2023-04-15T14:39:17;11.50;;;3.30;;
59659;SDS011;45534;52.690;6.268;2023-04-15T14:41:43;8.60;;;3.65;;
59659;SDS011;45534;52.690;6.268;2023-04-15T14:44:09;9.48;;;3.25;;
59659;SDS011;45534;52.690;6.268;2023-04-15T14:46:36;14.00;;;3.72;;
59659;SDS011;45534;52.690;6.268;2023-04-15T14:49:02;14.40;;;3.60;;
59659;SDS011;45534;52.690;6.268;2023-04-15T14:51:28;12.15;;;3.55;;
59659;SDS011;45534;52.690;6.268;2023-04-15T14:53:55;8.35;;;3.88;;
59659;SDS011;45534;52.690;6.268;2023-04-15T14:56:21;12.07;;;4.60;;
59659;SDS011;45534;52.690;6.268;2023-04-15T14:58:46;13.65;;;3.33;;
59659;SDS011;45534;52.690;6.268;2023-04-15T15:01:13;15.82;;;4.15;;